Time;durP1;ratioP1;P1;durP2;ratioP2;P2;SDS_P1;SDS_P2;PMS_P1;PMS_P2;Temp;Humidity;BMP_temperature;BMP_pressure;BME280_temperature;BME280_humidity;BME280_pressure;Samples;Min_cycle;Max_cycle;Signal;HPM_P1;HPM_P2
2021/10/18 00:01:13;;;;;;;13.75;5.30;;;10.70;99.90;;;11.12;87.76;101793.88;5077454;28;20193;-72
2021/10/18 00:03:40;;;;;;;15.27;5.72;;;10.70;99.90;;;11.13;87.45;101796.50;5084369;28;20596;-72
2021/10/18 00:06:06;;;;;;;15.05;5.32;;;10.70;99.90;;;11.13;87.27;101798.25;5074895;28;20770;-71
2021/10/18 00:08:33;;;;;;;16.58;5.07;;;10.70;99.90;;;11.12;87.61;101797.38;5069382;28;20192;-72
2021/10/18 00:11:00;;;;;;;15.18;5.55;;;10.70;99.90;;;11.12;87.17;101797.38;5068839;28;20700;-71
2021/10/18 00:13:27;;;;;;;19.42;5.88;;;10.70;99.90;;;11.15;87.11;101806.94;5079439;28;20667;-73
2021/10/18 00:15:56;;;;;;;14.98;5.30;;;10.70;99.90;;;11.18;87.17;101809.47;5079941;28;20187;-72
2021/10/18 00:18:23;;;;;;;12.48;5.55;;;10.80;99.90;;;11.18;87.11;101801.63;5070075;28;20247;-72
2021/10/18 00:20:50;;;;;;;15.80;5.20;;;10.80;99.90;;;11.20;86.83;101813.78;5064957;28;20188;-72
2021/10/18 00:23:17;;;;;;;12.40;4.93;;;10.80;99.90;;;11.21;86.93;101814.63;5075565;28;20220;-72
2021/10/18 00:25:44;;;;;;;14.55;5.60;;;10.80;99.90;;;11.21;86.66;101812.03;5080403;28;20195;-72
2021/10/18 00:28:10;;;;;;;12.30;5.43;;;10.80;99.90;;;11.19;86.42;101814.69;5078220;28;20673;-72
2021/10/18 00:30:37;;;;;;;14.50;5.60;;;10.80;99.90;;;11.21;86.26;101820.75;5064866;28;20196;-72
2021/10/18 00:33:05;;;;;;;15.43;5.35;;;10.80;99.90;;;11.22;86.28;101814.59;5090010;28;20183;-71
2021/10/18 00:35:32;;;;;;;12.75;4.95;;;10.90;99.90;;;11.23;86.08;101810.22;5069435;28;20254;-72
2021/10/18 00:37:59;;;;;;;14.43;5.40;;;10.80;99.90;;;11.20;85.90;101816.38;5077058;28;20196;-74
2021/10/18 00:40:25;;;;;;;14.55;5.65;;;10.80;99.90;;;11.18;86.18;101815.59;5077383;28;20193;-72
2021/10/18 00:42:53;;;;;;;15.18;5.82;;;10.80;99.90;;;11.17;86.13;101818.22;5080367;28;20191;-73
2021/10/18 00:45:21;;;;;;;13.88;5.22;;;10.80;99.90;;;11.15;86.04;101820.03;5075503;28;20724;-72
2021/10/18 00:47:48;;;;;;;12.90;5.28;;;10.80;99.90;;;11.15;85.90;101820.03;5083134;28;20199;-73
2021/10/18 00:50:16;;;;;;;14.90;5.75;;;10.70;99.90;;;11.14;85.91;101811.28;5081392;28;20183;-72
2021/10/18 00:52:44;;;;;;;14.05;5.47;;;10.70;99.90;;;11.12;85.97;101817.44;5072619;28;20205;-70
2021/10/18 00:55:13;;;;;;;13.95;5.38;;;10.70;99.90;;;11.12;86.15;101810.47;5072121;28;20204;-69
2021/10/18 00:57:41;;;;;;;15.05;6.00;;;10.70;99.90;;;11.14;85.97;101818.28;5082796;28;20192;-72
2021/10/18 01:00:09;;;;;;;14.15;5.60;;;10.70;99.90;;;11.16;86.03;101812.13;5077754;28;20758;-75
2021/10/18 01:02:37;;;;;;;13.75;5.22;;;10.70;99.90;;;11.18;85.88;101809.47;5067907;28;20190;-72
2021/10/18 01:05:06;;;;;;;17.55;6.25;;;10.70;99.90;;;11.19;86.25;101798.09;5077823;28;20754;-72
2021/10/18 01:07:35;;;;;;;13.63;5.45;;;10.70;99.90;;;11.21;86.00;101798.91;5081762;28;20185;-71
2021/10/18 01:10:02;;;;;;;13.35;5.28;;;10.70;99.90;;;11.23;86.01;101797.13;5077089;28;20197;-72
2021/10/18 01:12:29;;;;;;;15.13;6.00;;;10.70;99.90;;;11.25;85.89;101793.56;5076271;28;20208;-72
2021/10/18 01:14:56;;;;;;;19.63;5.80;;;10.70;99.90;;;11.24;85.79;101794.47;5077150;28;20304;-72
2021/10/18 01:17:23;;;;;;;19.42;5.95;;;10.70;99.90;;;11.26;85.76;101799.69;5064333;28;20189;-71
2021/10/18 01:19:50;;;;;;;13.05;5.88;;;10.70;99.90;;;11.26;85.85;101797.06;5078081;28;20619;-71
2021/10/18 01:22:18;;;;;;;17.23;6.07;;;10.70;99.90;;;11.24;85.61;101804.97;5075229;28;20912;-71
2021/10/18 01:24:45;;;;;;;16.05;5.75;;;10.70;99.90;;;11.24;85.46;101804.97;5075771;28;20204;-72
2021/10/18 01:27:14;;;;;;;15.35;5.38;;;10.70;99.90;;;11.25;85.65;101796.19;5077989;28;20188;-73
2021/10/18 01:29:42;;;;;;;16.73;5.07;;;10.80;99.90;;;11.26;85.37;101799.69;5062227;28;20573;-71
2021/10/18 01:32:10;;;;;;;13.90;5.57;;;10.80;99.90;;;11.28;85.07;101798.75;5082306;28;20760;-72
2021/10/18 01:34:37;;;;;;;14.65;5.88;;;10.80;99.90;;;11.29;84.88;101803.09;5073140;28;20212;-72
2021/10/18 01:37:05;;;;;;;12.85;5.30;;;10.80;99.90;;;11.34;84.86;101802.97;5068105;28;20193;-73
2021/10/18 01:39:34;;;;;;;18.38;6.05;;;10.80;99.90;;;11.37;84.55;101805.53;5074899;28;20314;-70
2021/10/18 01:42:01;;;;;;;15.75;5.35;;;10.90;99.90;;;11.36;84.50;101809.06;5076494;28;20191;-70
2021/10/18 01:44:28;;;;;;;15.52;5.05;;;10.90;99.90;;;11.35;84.38;101805.56;5072493;28;20269;-72
2021/10/18 01:46:56;;;;;;;15.07;5.75;;;10.90;99.90;;;11.35;84.32;101802.94;5073595;28;20192;-75
2021/10/18 01:49:23;;;;;;;17.10;5.72;;;10.90;99.90;;;11.36;83.97;101807.31;5066252;28;20189;-72
2021/10/18 01:51:50;;;;;;;11.60;4.82;;;10.90;99.90;;;11.38;83.88;101805.53;5068106;28;20210;-72
2021/10/18 01:54:16;;;;;;;14.93;5.43;;;10.90;99.90;;;11.38;83.76;101804.66;5072127;28;20250;-72
2021/10/18 01:56:44;;;;;;;12.77;4.70;;;10.90;99.90;;;11.38;83.81;101799.41;5078315;28;20193;-72
2021/10/18 01:59:11;;;;;;;13.18;5.38;;;10.90;99.90;;;11.39;83.82;101801.13;5072255;28;20654;-70
2021/10/18 02:01:38;;;;;;;18.40;5.85;;;10.90;99.90;;;11.42;83.64;101811.53;5069828;28;20241;-73
2021/10/18 02:04:05;;;;;;;14.95;5.75;;;11.00;99.90;;;11.43;83.63;101810.63;5073457;28;20589;-72
2021/10/18 02:06:31;;;;;;;16.63;5.43;;;11.00;99.90;;;11.45;83.59;101802.75;5072374;28;20252;-70
2021/10/18 02:08:58;;;;;;;13.65;4.78;;;11.00;99.90;;;11.46;83.75;101802.69;5073934;28;20195;-74
2021/10/18 02:11:25;;;;;;;14.27;5.00;;;11.00;99.90;;;11.47;83.67;101809.66;5077355;28;20230;-72
2021/10/18 02:13:53;;;;;;;13.48;4.80;;;11.00;99.90;;;11.47;83.54;101801.78;5081118;28;20762;-71
2021/10/18 02:16:20;;;;;;;11.07;4.75;;;11.00;99.90;;;11.47;83.63;101800.94;5073565;28;20245;-72
2021/10/18 02:18:47;;;;;;;13.32;4.82;;;11.00;99.90;;;11.47;83.48;101809.66;5073185;28;20188;-70
2021/10/18 02:21:14;;;;;;;11.32;4.82;;;11.00;99.90;;;11.49;83.58;101807.88;5070402;28;20192;-72
2021/10/18 02:23:41;;;;;;;12.80;4.20;;;11.00;99.90;;;11.48;83.29;101802.66;5073306;28;20220;-72
2021/10/18 02:26:07;;;;;;;12.02;4.55;;;11.00;99.90;;;11.45;83.17;101801.00;5074884;28;20244;-72
2021/10/18 02:28:34;;;;;;;11.80;4.30;;;11.00;99.90;;;11.42;83.16;101806.28;5075445;28;20193;-72
2021/10/18 02:31:02;;;;;;;14.30;4.43;;;11.00;99.90;;;11.44;83.27;101804.50;5080291;28;20192;-72
2021/10/18 02:33:29;;;;;;;14.65;4.22;;;11.00;99.90;;;11.46;83.16;101815.81;5068494;28;20220;-72
2021/10/18 02:35:56;;;;;;;12.23;4.28;;;11.00;99.90;;;11.46;83.18;101809.69;5067598;28;20191;-71
2021/10/18 02:38:22;;;;;;;15.80;4.68;;;11.00;99.90;;;11.45;83.08;101806.22;5075506;28;20674;-73
2021/10/18 02:40:49;;;;;;;10.00;4.40;;;11.00;99.90;;;11.47;82.94;101811.44;5072592;28;20187;-71
2021/10/18 02:43:16;;;;;;;12.20;4.05;;;11.00;99.90;;;11.44;83.23;101817.59;5073639;28;20791;-70
2021/10/18 02:45:42;;;;;;;32.30;10.70;;;11.00;99.90;;;11.43;83.16;101813.25;5079396;28;20191;-72
2021/10/18 02:48:12;;;;;;;26.70;9.98;;;11.00;99.90;;;11.44;83.11;101809.72;5072069;28;20188;-72
2021/10/18 02:50:39;;;;;;;39.80;14.57;;;11.00;99.90;;;11.44;83.03;101803.66;5070161;28;20218;-71
2021/10/18 02:53:06;;;;;;;40.95;15.48;;;11.00;99.90;;;11.45;83.08;101795.75;5073164;28;20623;-72
2021/10/18 02:55:33;;;;;;;21.33;7.78;;;11.00;99.90;;;11.45;83.17;101795.75;5079415;28;20288;-71
2021/10/18 02:58:00;;;;;;;13.55;4.82;;;11.00;99.90;;;11.44;83.05;101794.00;5080493;28;20187;-71
2021/10/18 03:00:27;;;;;;;12.05;4.63;;;11.00;99.90;;;11.43;83.05;101796.66;5072429;28;20192;-72
2021/10/18 03:02:54;;;;;;;11.15;4.22;;;11.00;99.90;;;11.44;83.20;101798.41;5072553;28;20191;-71
2021/10/18 03:05:22;;;;;;;11.93;4.45;;;11.00;99.90;;;11.44;83.18;101804.50;5068200;28;20231;-72
2021/10/18 03:07:51;;;;;;;12.20;3.97;;;11.00;99.90;;;11.43;83.04;101805.41;5068546;28;20220;-72
2021/10/18 03:10:19;;;;;;;11.70;3.60;;;11.00;99.90;;;11.45;83.10;101808.84;5069314;28;20199;-72
2021/10/18 03:12:46;;;;;;;12.02;3.58;;;11.00;99.90;;;11.47;82.65;101804.41;5077064;28;20268;-70
2021/10/18 03:15:14;;;;;;;9.40;3.63;;;11.00;99.90;;;11.50;82.63;101798.25;5070133;28;20252;-72
2021/10/18 03:17:42;;;;;;;11.05;3.90;;;11.00;99.90;;;11.52;82.48;101802.53;5087013;28;20188;-70
2021/10/18 03:20:11;;;;;;;11.25;4.03;;;11.00;99.90;;;11.53;82.47;101808.66;5073249;28;20198;-71
2021/10/18 03:22:40;;;;;;;11.15;5.00;;;11.00;99.90;;;11.54;82.17;101808.63;5085336;28;20199;-71
2021/10/18 03:25:09;;;;;;;10.70;4.00;;;11.00;99.90;;;11.53;82.13;101817.38;5075603;28;20249;-71
2021/10/18 03:27:36;;;;;;;10.48;3.55;;;11.10;99.90;;;11.54;81.89;101811.25;5072189;28;20196;-71
2021/10/18 03:30:04;;;;;;;11.43;3.80;;;11.10;99.90;;;11.56;81.76;101806.81;5078468;28;20707;-72
2021/10/18 03:32:31;;;;;;;14.65;4.00;;;11.10;99.90;;;11.55;81.46;101810.34;5069427;28;20211;-72
2021/10/18 03:34:58;;;;;;;9.15;3.55;;;11.10;99.90;;;11.56;81.44;101806.81;5069889;28;20223;-71
2021/10/18 03:37:25;;;;;;;12.07;4.10;;;11.10;99.90;;;11.57;81.50;101811.16;5066112;28;20196;-72
2021/10/18 03:39:53;;;;;;;9.80;3.42;;;11.10;99.90;;;11.57;81.42;101819.03;5071386;28;20187;-72
2021/10/18 03:42:19;;;;;;;9.68;3.42;;;11.10;99.90;;;11.56;81.35;101813.81;5069079;28;20201;-72
2021/10/18 03:44:46;;;;;;;12.07;3.35;;;11.10;99.90;;;11.55;80.91;101812.97;5072827;28;20750;-70
2021/10/18 03:47:13;;;;;;;10.05;3.38;;;11.10;99.90;;;11.57;81.32;101826.06;5074893;28;20241;-71
2021/10/18 03:49:40;;;;;;;8.95;3.40;;;11.10;99.90;;;11.58;81.19;101818.16;5069658;28;20204;-72
2021/10/18 03:52:06;;;;;;;13.23;3.67;;;11.10;99.90;;;11.58;81.16;101827.75;5067768;28;20607;-72
2021/10/18 03:54:33;;;;;;;10.65;3.33;;;11.10;99.90;;;11.59;81.13;101819.84;5071105;28;20210;-72
2021/10/18 03:57:01;;;;;;;9.25;3.35;;;11.10;99.90;;;11.58;80.52;101820.75;5087805;28;20192;-72
2021/10/18 03:59:28;;;;;;;11.43;3.35;;;11.10;99.90;;;11.58;80.75;101812.91;5077128;28;20196;-72
2021/10/18 04:01:55;;;;;;;10.25;3.40;;;11.10;99.90;;;11.57;80.64;101821.66;5071223;28;20722;-72
2021/10/18 04:04:22;;;;;;;8.95;3.20;;;11.10;99.90;;;11.57;80.46;101815.56;5085117;28;20302;-72
2021/10/18 04:06:49;;;;;;;8.85;3.30;;;11.10;99.90;;;11.57;80.49;101821.66;5071684;28;20188;-72
2021/10/18 04:09:15;;;;;;;11.30;3.20;;;11.10;99.90;;;11.59;80.46;101822.47;5071508;28;20203;-72
2021/10/18 04:11:42;;;;;;;11.10;3.58;;;11.10;99.90;;;11.61;80.35;101817.19;5073052;28;20200;-72
2021/10/18 04:14:10;;;;;;;9.23;3.03;;;11.20;99.90;;;11.61;80.23;101825.94;5072835;28;20750;-73
2021/10/18 04:16:37;;;;;;;12.23;3.15;;;11.10;99.90;;;11.60;80.08;101824.22;5062594;28;20184;-73
2021/10/18 04:19:05;;;;;;;9.95;3.30;;;11.20;99.90;;;11.61;80.29;101833.78;5074894;28;20187;-71
2021/10/18 04:21:32;;;;;;;10.45;3.30;;;11.20;99.90;;;11.62;80.64;101827.63;5075211;28;20204;-72
2021/10/18 04:23:59;;;;;;;9.65;3.17;;;11.20;99.90;;;11.64;80.25;101825.03;5077366;28;20203;-74
2021/10/18 04:26:26;;;;;;;13.55;3.55;;;11.20;99.90;;;11.66;80.37;101816.22;5077800;28;20203;-72
2021/10/18 04:28:53;;;;;;;9.07;3.08;;;11.20;99.90;;;11.66;80.38;101821.47;5076806;28;20196;-72
2021/10/18 04:31:21;;;;;;;10.27;3.40;;;11.20;99.90;;;11.67;80.37;101817.09;5073895;28;20200;-73
2021/10/18 04:33:48;;;;;;;12.65;3.55;;;11.20;99.90;;;11.65;80.49;101829.38;5083239;28;20272;-72
2021/10/18 04:36:15;;;;;;;10.65;3.30;;;11.20;99.90;;;11.64;80.44;101839.00;5070479;28;20179;-72
2021/10/18 04:38:41;;;;;;;9.75;2.85;;;11.20;99.90;;;11.64;80.47;101841.63;5079776;28;20206;-72
2021/10/18 04:41:08;;;;;;;9.85;3.10;;;11.20;99.90;;;11.63;80.54;101841.63;5079742;28;20555;-72
2021/10/18 04:43:35;;;;;;;8.93;2.80;;;11.20;99.90;;;11.63;80.58;101841.63;5076940;28;20224;-72
2021/10/18 04:46:02;;;;;;;9.75;3.10;;;11.20;99.90;;;11.60;80.70;101842.56;5078359;28;20195;-72
2021/10/18 04:48:30;;;;;;;10.15;3.13;;;11.10;99.90;;;11.56;80.89;101838.28;5074223;28;20193;-72
2021/10/18 04:50:57;;;;;;;8.68;2.88;;;11.10;99.90;;;11.56;80.79;101851.38;5081722;28;20719;-72
2021/10/18 04:53:23;;;;;;;9.95;3.00;;;11.00;99.90;;;11.54;80.85;101845.31;5071752;28;20220;-72
2021/10/18 04:55:52;;;;;;;9.50;3.05;;;11.00;99.90;;;11.55;80.96;101843.56;5073047;28;20669;-72
2021/10/18 04:58:19;;;;;;;8.98;3.25;;;11.10;99.90;;;11.54;80.96;101849.72;5071718;28;20204;-72
2021/10/18 05:00:49;;;;;;;10.73;3.08;;;11.00;99.90;;;11.55;81.02;101854.06;5081805;28;20278;-73
2021/10/18 05:03:16;;;;;;;8.68;2.85;;;11.00;99.90;;;11.54;80.94;101853.19;5090093;28;20216;-72
2021/10/18 05:05:44;;;;;;;9.57;3.00;;;11.00;99.90;;;11.53;81.22;101856.72;5087085;28;20622;-71
2021/10/18 05:08:13;;;;;;;9.05;3.10;;;11.00;99.90;;;11.52;81.50;101852.34;5065934;28;20700;-72
2021/10/18 05:10:42;;;;;;;9.43;3.13;;;11.00;99.90;;;11.54;81.54;101852.34;5079423;28;20249;-69
2021/10/18 05:13:11;;;;;;;10.82;3.20;;;11.00;99.90;;;11.54;81.82;101860.22;5075632;28;20211;-72
2021/10/18 05:15:39;;;;;;;13.13;3.05;;;11.00;99.90;;;11.53;81.57;101861.94;5075146;28;20188;-72
2021/10/18 05:18:06;;;;;;;8.82;3.13;;;11.00;99.90;;;11.52;81.73;101867.22;5077647;28;20194;-72
2021/10/18 05:20:35;;;;;;;9.60;3.42;;;11.00;99.90;;;11.50;81.79;101864.66;5061848;28;20188;-72
2021/10/18 05:23:04;;;;;;;8.77;2.95;;;11.00;99.90;;;11.50;82.10;101875.13;5072041;28;20656;-72
2021/10/18 05:25:31;;;;;;;9.27;3.08;;;11.00;99.90;;;11.50;81.97;101872.50;5088914;28;20651;-72
2021/10/18 05:27:58;;;;;;;9.60;2.95;;;11.00;99.90;;;11.49;81.82;101868.16;5076811;28;20199;-72
2021/10/18 05:30:25;;;;;;;8.98;3.20;;;11.00;99.90;;;11.46;81.92;101870.84;5088934;28;20234;-72
2021/10/18 05:32:53;;;;;;;10.07;3.17;;;11.00;99.90;;;11.45;81.77;101869.13;5077978;28;20227;-72
2021/10/18 05:35:20;;;;;;;10.10;3.45;;;11.00;99.90;;;11.43;82.02;101876.16;5074416;28;20192;-72
2021/10/18 05:37:48;;;;;;;10.10;3.30;;;10.90;99.90;;;11.41;81.87;101875.34;5077722;28;20196;-72
2021/10/18 05:40:18;;;;;;;10.25;3.38;;;10.90;99.90;;;11.41;82.13;101885.81;5092941;28;20991;-73
2021/10/18 05:42:45;;;;;;;10.57;3.10;;;10.90;99.90;;;11.41;82.11;101883.19;5079250;28;20187;-72
2021/10/18 05:45:13;;;;;;;8.77;2.55;;;10.90;99.90;;;11.40;82.15;101874.47;5079161;28;20211;-72
2021/10/18 05:47:57;;;;;;;8.75;2.92;;;10.90;99.90;;;11.42;82.19;101877.03;5080400;28;20253;-72
2021/10/18 05:50:26;;;;;;;9.13;2.85;;;10.90;99.90;;;11.40;82.22;101884.09;5075761;28;20650;-71
2021/10/18 05:52:53;;;;;;;8.65;2.80;;;10.90;99.90;;;11.41;82.03;101888.44;5075437;28;20690;-73
2021/10/18 05:55:22;;;;;;;8.18;2.63;;;10.90;99.90;;;11.39;81.88;101883.22;5056849;28;20216;-71
2021/10/18 05:57:52;;;;;;;11.63;2.97;;;10.90;99.90;;;11.40;82.00;101884.09;5062231;28;20192;-71
2021/10/18 06:00:20;;;;;;;9.68;2.90;;;10.90;99.90;;;11.39;81.76;101890.22;5071283;28;20187;-72
2021/10/18 06:02:47;;;;;;;7.88;2.78;;;10.90;99.90;;;11.38;81.62;101891.13;5054437;28;20183;-72
2021/10/18 06:05:15;;;;;;;9.63;2.95;;;10.90;99.90;;;11.36;81.75;101895.53;5068407;28;20214;-71
2021/10/18 06:07:42;;;;;;;8.48;2.83;;;10.90;99.90;;;11.35;81.79;101888.59;5066918;28;20728;-71
2021/10/18 06:10:11;;;;;;;9.73;3.42;;;10.90;99.90;;;11.36;81.45;101898.16;5060978;28;20196;-71
2021/10/18 06:12:41;;;;;;;10.13;3.20;;;10.90;99.90;;;11.38;81.18;101899.00;5069026;28;20204;-72
2021/10/18 06:15:10;;;;;;;9.68;3.35;;;10.90;99.90;;;11.38;81.03;101899.88;5063888;28;20224;-71
2021/10/18 06:17:37;;;;;;;8.27;2.70;;;10.80;99.90;;;11.40;80.97;101907.69;5074319;28;20192;-72
2021/10/18 06:20:05;;;;;;;12.48;3.25;;;10.90;99.90;;;11.44;80.93;101905.88;5070562;28;20192;-71
2021/10/18 06:22:32;;;;;;;8.82;3.17;;;10.90;99.90;;;11.43;80.61;101910.25;5073467;28;20205;-72
2021/10/18 06:24:59;;;;;;;9.23;3.35;;;10.90;99.90;;;11.44;80.42;101903.25;5055003;28;20321;-71
2021/10/18 06:27:26;;;;;;;8.65;3.20;;;10.90;99.90;;;11.44;80.83;101904.09;5064894;28;20570;-72
2021/10/18 06:29:54;;;;;;;9.60;3.28;;;11.00;99.90;;;11.47;80.87;101904.00;5070361;28;20202;-72
2021/10/18 06:32:21;;;;;;;9.90;3.25;;;11.00;99.90;;;11.49;80.72;101902.22;5063111;28;20188;-70
2021/10/18 06:34:48;;;;;;;10.52;3.33;;;11.00;99.90;;;11.53;80.98;101903.03;5060719;28;20234;-71
2021/10/18 06:37:14;;;;;;;7.60;3.15;;;11.10;99.90;;;11.56;81.02;101901.19;5065477;28;20196;-72
2021/10/18 06:39:41;;;;;;;12.25;3.08;;;11.00;99.90;;;11.57;80.97;101899.47;5079173;28;20681;-72
2021/10/18 06:42:09;;;;;;;10.10;3.03;;;11.10;99.90;;;11.57;80.90;101902.06;5075957;28;20188;-73
2021/10/18 06:44:36;;;;;;;8.95;3.17;;;11.10;99.90;;;11.55;80.88;101912.59;5084404;28;20286;-71
2021/10/18 06:47:05;;;;;;;9.00;3.10;;;11.00;99.90;;;11.56;80.62;101921.31;5074856;28;20207;-72
2021/10/18 06:49:32;;;;;;;10.70;2.75;;;11.10;99.90;;;11.56;80.70;101923.94;5065142;28;20263;-72
2021/10/18 06:51:59;;;;;;;10.70;3.20;;;11.10;99.90;;;11.57;80.54;101926.50;5058639;28;20195;-72
2021/10/18 06:54:35;;;;;;;9.88;3.05;;;11.10;99.90;;;11.59;80.41;101931.75;5056954;28;20215;-71
2021/10/18 06:57:01;;;;;;;9.40;3.47;;;11.10;99.90;;;11.63;80.73;101936.88;5069055;28;20223;-71
2021/10/18 06:59:28;;;;;;;12.55;3.20;;;11.20;99.90;;;11.69;80.14;101935.94;5051517;28;20196;-70
2021/10/18 07:01:56;;;;;;;9.27;2.88;;;11.20;99.90;;;11.75;79.90;101934.03;5061439;28;20196;-70
2021/10/18 07:04:24;;;;;;;11.52;3.08;;;11.30;99.90;;;11.82;79.84;101932.13;5065600;28;20224;-70
2021/10/18 07:06:50;;;;;;;10.25;3.17;;;11.30;99.90;;;11.88;80.04;101930.22;5053308;28;20192;-71
2021/10/18 07:09:17;;;;;;;13.48;3.50;;;11.40;99.90;;;11.94;79.65;101934.47;5074949;28;20201;-71
2021/10/18 07:11:44;;;;;;;9.43;3.30;;;11.50;99.90;;;11.99;79.52;101936.06;5066555;28;20214;-71
2021/10/18 07:14:12;;;;;;;8.63;3.10;;;11.60;99.90;;;12.05;79.10;101940.31;5071630;28;20272;-71
2021/10/18 07:16:38;;;;;;;14.25;3.00;;;11.60;99.90;;;12.08;78.91;101946.34;5069484;28;20208;-71
2021/10/18 07:19:05;;;;;;;9.82;3.10;;;11.70;99.90;;;12.13;78.40;101949.72;5052215;28;20196;-71
2021/10/18 07:21:33;;;;;;;11.40;3.08;;;11.70;99.90;;;12.19;78.36;101948.72;5063876;28;20616;-69
2021/10/18 07:24:03;;;;;;;8.57;2.60;;;11.80;99.90;;;12.25;78.02;101954.69;5064548;28;20224;-71
2021/10/18 07:26:31;;;;;;;9.77;2.90;;;11.80;99.90;;;12.30;77.68;101958.06;5061286;28;20189;-70
2021/10/18 07:28:58;;;;;;;9.82;2.85;;;11.90;99.90;;;12.38;77.37;101973.59;5050481;28;20223;-73
2021/10/18 07:31:25;;;;;;;9.20;3.55;;;12.00;99.90;;;12.42;76.96;101970.84;5056782;28;20569;-70
2021/10/18 07:33:54;;;;;;;10.57;2.78;;;12.10;99.90;;;12.47;77.10;101979.47;5072552;28;20224;-71
2021/10/18 07:36:24;;;;;;;8.88;2.65;;;12.10;99.90;;;12.52;76.81;101982.03;5052047;28;20203;-70
2021/10/18 07:38:53;;;;;;;9.60;3.00;;;12.20;99.90;;;12.54;76.41;101983.69;5062001;28;20286;-71
2021/10/18 07:41:22;;;;;;;9.23;2.58;;;12.20;99.90;;;12.55;76.51;101977.56;5069336;28;20224;-70
2021/10/18 07:43:49;;;;;;;8.40;2.75;;;12.20;99.90;;;12.57;75.97;101973.09;5066740;28;20204;-71
2021/10/18 07:46:17;;;;;;;9.55;2.70;;;12.30;99.90;;;12.59;75.75;101970.47;5055442;28;20195;-70
2021/10/18 07:48:44;;;;;;;9.38;2.55;;;12.30;99.90;;;12.58;75.77;101972.22;5064351;28;20196;-71
2021/10/18 07:51:11;;;;;;;9.10;2.70;;;12.30;99.90;;;12.60;75.52;101973.06;5054165;28;20192;-71
2021/10/18 07:53:37;;;;;;;9.10;2.60;;;12.30;99.90;;;12.60;75.44;101978.31;5077171;28;20221;-69
2021/10/18 07:56:06;;;;;;;8.07;2.83;;;12.30;99.90;;;12.62;75.60;101971.22;5065053;28;20196;-70
2021/10/18 07:58:33;;;;;;;11.00;3.08;;;12.30;99.90;;;12.64;75.27;101979.94;5062290;28;20192;-70
2021/10/18 08:01:00;;;;;;;8.00;2.40;;;12.40;99.90;;;12.69;75.14;101976.34;5056897;28;20208;-73
2021/10/18 08:03:26;;;;;;;9.77;2.58;;;12.40;99.90;;;12.71;74.93;101985.88;5061288;28;20211;-73
2021/10/18 08:05:53;;;;;;;8.15;2.45;;;12.40;99.90;;;12.72;74.65;101992.88;5063267;28;20218;-71
2021/10/18 08:08:24;;;;;;;9.45;2.67;;;12.50;99.90;;;12.76;74.86;101981.38;5063759;28;20597;-72
2021/10/18 08:10:51;;;;;;;11.55;2.53;;;12.50;99.90;;;12.76;74.63;101983.16;5059373;28;20293;-73
2021/10/18 08:13:19;;;;;;;9.35;2.67;;;12.50;99.90;;;12.78;74.46;101982.19;5077038;28;20218;-73
2021/10/18 08:15:46;;;;;;;9.88;2.75;;;12.60;99.90;;;12.82;74.34;101990.88;5061208;28;20188;-72
2021/10/18 08:18:13;;;;;;;10.43;2.78;;;12.60;99.90;;;12.84;74.39;101986.44;5064083;28;20188;-72
2021/10/18 08:20:42;;;;;;;9.60;2.67;;;12.60;99.90;;;12.88;74.22;101993.34;5061476;28;20207;-70
2021/10/18 08:23:09;;;;;;;10.80;2.75;;;12.60;99.90;;;12.88;73.94;101988.09;5076864;28;20196;-72
2021/10/18 08:25:36;;;;;;;11.57;2.60;;;12.70;99.90;;;12.90;74.16;101989.78;5056711;28;20193;-71
2021/10/18 08:28:03;;;;;;;7.70;2.47;;;12.70;99.90;;;12.92;73.88;101990.59;5065238;28;20196;-72
2021/10/18 08:30:31;;;;;;;14.68;2.80;;;12.70;99.90;;;12.97;74.31;101990.47;5060033;28;20200;-71
2021/10/18 08:32:58;;;;;;;8.18;2.50;;;12.80;99.90;;;13.01;74.22;101985.13;5065336;28;20196;-71
2021/10/18 08:35:25;;;;;;;8.50;2.65;;;12.80;99.90;;;13.05;74.03;101986.75;5053312;28;20217;-70
2021/10/18 08:40:40;;;;;;;10.30;3.08;;;12.90;99.90;;;13.12;73.80;101988.31;5057456;28;20574;-73
2021/10/18 08:43:12;;;;;;;10.57;3.45;;;12.90;99.90;;;13.17;73.82;101985.56;5055425;28;20280;-70
2021/10/18 08:45:41;;;;;;;11.43;2.75;;;13.00;99.90;;;13.21;74.10;101981.97;5070126;28;20207;-71
2021/10/18 08:48:10;;;;;;;7.97;2.75;;;13.00;99.90;;;13.24;73.68;101974.84;5062329;28;20199;-72
2021/10/18 08:50:38;;;;;;;8.57;2.60;;;13.00;99.90;;;13.27;73.49;101972.13;5062606;28;20290;-70
2021/10/18 08:53:05;;;;;;;8.40;2.60;;;13.10;99.90;;;13.29;73.18;101983.47;5055652;28;20195;-71
2021/10/18 08:55:36;;;;;;;13.07;3.00;;;13.10;99.90;;;13.33;73.14;101984.25;5060785;28;20227;-70
2021/10/18 08:58:03;;;;;;;10.10;2.85;;;13.10;99.90;;;13.35;72.74;101979.78;5062867;28;20271;-72
2021/10/18 09:00:43;;;;;;;7.68;2.30;;;13.20;99.90;;;13.38;72.40;101969.22;5053768;28;20192;-72
2021/10/18 09:03:20;;;;;;;9.98;2.83;;;13.20;99.90;;;13.43;72.11;101975.19;5057994;28;20193;-73
2021/10/18 09:05:47;;;;;;;10.05;2.70;;;13.20;99.90;;;13.46;72.32;101980.34;5060410;28;20864;-73
2021/10/18 09:08:35;;;;;;;10.07;2.67;;;13.30;99.90;;;13.51;72.04;101981.94;5065049;28;20192;-73
2021/10/18 09:11:06;;;;;;;8.32;2.55;;;13.30;99.90;;;13.57;71.88;101992.28;5054748;28;20187;-72
2021/10/18 09:13:34;;;;;;;8.80;2.50;;;13.40;99.90;;;13.62;71.67;101992.16;5056750;28;20216;-72
2021/10/18 09:16:02;;;;;;;13.05;2.75;;;13.50;99.90;;;13.64;71.81;101996.47;5070733;28;20197;-73
2021/10/18 09:18:30;;;;;;;9.90;3.50;;;13.50;99.90;;;13.67;72.12;101992.88;5072113;28;20208;-72
2021/10/18 09:20:57;;;;;;;10.77;2.88;;;13.50;99.90;;;13.69;71.73;101991.94;5058623;28;20200;-72
2021/10/18 09:23:28;;;;;;;7.40;2.30;;;13.60;99.90;;;13.72;71.28;101996.22;5061245;28;20211;-72
2021/10/18 09:26:05;;;;;;;7.78;2.40;;;13.60;99.90;;;13.74;70.95;101994.41;5069042;28;20199;-75
2021/10/18 09:28:33;;;;;;;7.45;2.40;;;13.60;99.90;;;13.77;70.74;101995.19;5074357;28;20187;-71
2021/10/18 09:31:01;;;;;;;6.68;2.70;;;13.70;99.90;;;13.81;70.43;101995.97;5057670;28;20655;-71
2021/10/18 09:33:33;;;;;;;11.70;2.42;;;13.70;99.90;;;13.83;70.27;101999.41;5058925;28;20305;-73
2021/10/18 09:36:02;;;;;;;8.68;2.70;;;13.70;99.90;;;13.87;69.88;101995.78;5064862;28;20214;-73
2021/10/18 09:38:29;;;;;;;9.07;3.28;;;13.80;99.90;;;13.92;69.69;102001.75;5064731;28;20272;-75
2021/10/18 09:40:59;;;;;;;8.48;2.60;;;13.90;99.90;;;14.00;69.64;101994.47;5062016;28;20572;-72
2021/10/18 09:43:34;;;;;;;10.52;2.90;;;13.90;99.90;;;14.05;69.77;101995.19;5059486;28;20223;-72
2021/10/18 09:46:13;;;;;;;8.75;2.42;;;14.00;99.90;;;14.11;69.53;101988.88;5065113;28;20237;-72
2021/10/18 10:51:28;;;;;;;8.57;3.03;;;14.50;99.90;;;14.72;67.57;102004.44;5047493;28;20726;-70
2021/10/18 10:54:00;;;;;;;8.18;2.67;;;14.60;99.90;;;14.72;67.54;102000.03;5056473;28;20216;-71
2021/10/18 10:56:42;;;;;;;7.72;2.45;;;14.60;99.90;;;14.71;67.28;102011.50;5076382;28;20630;-71
2021/10/18 10:59:24;;;;;;;5.13;2.15;;;14.60;99.90;;;14.69;66.86;102010.69;5062077;28;20204;-70
2021/10/18 11:01:59;;;;;;;9.02;2.20;;;14.60;99.90;;;14.68;67.10;101992.28;5053334;28;20196;-72
2021/10/18 11:04:46;;;;;;;8.07;2.40;;;14.50;99.90;;;14.66;66.65;101999.38;5057352;28;20215;-71
2021/10/18 11:07:37;;;;;;;8.43;2.40;;;14.50;99.90;;;14.64;66.47;102002.06;5058808;28;20188;-71
2021/10/18 11:10:07;;;;;;;7.78;2.38;;;14.40;99.90;;;14.62;66.44;101995.13;5064041;28;20210;-70
2021/10/18 11:12:38;;;;;;;7.97;2.10;;;14.40;99.90;;;14.59;66.45;101998.72;5057647;28;20219;-71
2021/10/18 11:15:09;;;;;;;9.02;2.60;;;14.30;99.90;;;14.56;66.08;101995.34;5056261;28;20303;-70
2021/10/18 11:17:40;;;;;;;9.30;2.40;;;14.30;99.90;;;14.54;66.20;101994.53;5056361;28;20654;-72